CJE6 weather

Paradise Hill Airport
Paradise Hill, Saskatchewan, Canada

Public forecast

Using degrees Celsius for public forecast. Weather courtesy of forecast.io.

METAR (pilot weather report)

Closest report is Lloydminster Airport, 26.6 nm (49.2 km) WSW. Retrieved 2019/04/21 10:00 UTC (17 minutes ago):

CYLL 211000Z AUTO 26009KT 9SM CLR M02/M05 A3004 RMK SLP201

TAF (pilot weather forecast)

Closest forecast is Lloydminster Airport, 26.6 nm (49.2 km) WSW. Retrieved 2019/04/21 06:42 UTC (4 hours ago):

TAF CYLL 210539Z 2106/2118 28008KT P6SM FEW080 FM211700 32012KT P6SM FEW070 RMK FCST BASED ON AUTO OBS. NXT FCST BY 211200Z